createdAt,value
2023-05-24T00:00:33.386Z,22.95
2023-05-24T00:03:05.319Z,24.45
2023-05-24T00:05:40.035Z,24.80
2023-05-24T00:08:11.612Z,23.77
2023-05-24T00:10:42.374Z,23.17
2023-05-24T00:13:13.110Z,26.27
2023-05-24T00:15:43.504Z,24.70
2023-05-24T00:18:13.876Z,24.70
2023-05-24T00:20:44.384Z,24.92
2023-05-24T00:23:15.138Z,24.00
2023-05-24T00:25:45.253Z,25.60
2023-05-24T00:28:15.594Z,24.52
2023-05-24T00:30:46.031Z,23.43
2023-05-24T00:33:16.441Z,24.30
2023-05-24T00:35:46.757Z,25.20
2023-05-24T00:38:17.301Z,23.30
2023-05-24T00:40:48.002Z,24.50
2023-05-24T00:43:19.162Z,22.93
2023-05-24T00:45:49.582Z,23.60
2023-05-24T00:48:20.055Z,23.60
2023-05-24T00:50:52.968Z,23.55
2023-05-24T00:53:24.250Z,24.73
2023-05-24T00:58:29.544Z,22.15
2023-05-24T01:01:04.632Z,23.17
2023-05-24T01:03:36.283Z,22.55
2023-05-24T01:06:09.666Z,22.80
2023-05-24T01:08:42.669Z,21.92
2023-05-24T01:11:20.715Z,21.55
2023-05-24T01:13:56.498Z,21.88
2023-05-24T01:16:49.024Z,21.30
2023-05-24T01:19:37.776Z,19.15
2023-05-24T01:22:36.166Z,20.50
2023-05-24T01:25:13.515Z,20.83
2023-05-24T01:27:45.782Z,18.73
2023-05-24T01:30:16.900Z,18.80
2023-05-24T01:32:47.519Z,18.25
2023-05-24T01:35:17.890Z,17.90
2023-05-24T01:37:48.256Z,17.13
2023-05-24T01:40:19.244Z,16.80
2023-05-24T01:42:59.817Z,17.58
2023-05-24T01:48:44.276Z,17.33
2023-05-24T01:51:18.626Z,17.08
2023-05-24T01:53:52.009Z,17.63
2023-05-24T01:56:24.321Z,16.98
2023-05-24T01:58:59.441Z,17.08
2023-05-24T02:01:30.540Z,16.20
2023-05-24T02:04:02.870Z,15.93
2023-05-24T02:06:33.260Z,16.58
2023-05-24T02:09:03.790Z,17.80
2023-05-24T02:11:34.021Z,17.07
2023-05-24T02:14:04.284Z,16.88
2023-05-24T02:16:35.650Z,17.60
2023-05-24T02:19:06.182Z,16.50
2023-05-24T02:21:36.327Z,15.77
2023-05-24T02:24:06.946Z,16.87
2023-05-24T02:26:37.317Z,16.27
2023-05-24T02:29:09.896Z,15.87
2023-05-24T02:31:41.415Z,16.00
2023-05-24T02:34:11.950Z,16.40
2023-05-24T02:36:42.329Z,17.10
2023-05-24T02:39:12.990Z,15.43
2023-05-24T02:41:43.655Z,15.75
2023-05-24T02:44:14.475Z,15.95
2023-05-24T02:46:44.942Z,15.77
2023-05-24T02:49:15.566Z,15.98
2023-05-24T02:51:46.302Z,16.23
2023-05-24T02:54:16.802Z,16.30
2023-05-24T02:56:47.312Z,16.43
2023-05-24T02:59:19.997Z,15.85
2023-05-24T03:01:51.652Z,15.57
2023-05-24T03:04:22.079Z,15.43
2023-05-24T03:06:52.415Z,16.20
2023-05-24T03:09:22.932Z,15.13
2023-05-24T03:11:55.270Z,15.40
2023-05-24T03:14:27.419Z,16.92
2023-05-24T03:16:59.595Z,17.27
2023-05-24T03:19:30.424Z,15.43
2023-05-24T03:22:01.033Z,15.87
2023-05-24T03:24:31.431Z,16.83
2023-05-24T03:27:05.006Z,15.40
2023-05-24T03:29:35.440Z,15.65
2023-05-24T03:32:06.706Z,14.60
2023-05-24T03:34:37.179Z,15.43
2023-05-24T03:37:08.101Z,14.93
2023-05-24T03:39:40.392Z,15.63
2023-05-24T03:42:36.959Z,15.05
2023-05-24T03:45:12.068Z,15.30
2023-05-24T03:47:42.572Z,15.07
2023-05-24T03:50:13.270Z,15.70
2023-05-24T03:52:44.829Z,15.50
2023-05-24T03:55:15.214Z,14.98
2023-05-24T03:57:45.634Z,15.07
2023-05-24T04:00:16.521Z,15.27
2023-05-24T04:02:50.789Z,15.50
2023-05-24T04:05:21.233Z,15.13
2023-05-24T04:07:51.681Z,15.73
2023-05-24T04:10:22.375Z,15.33
2023-05-24T04:12:53.068Z,15.13
2023-05-24T04:15:23.741Z,15.70
2023-05-24T04:17:57.985Z,15.95
2023-05-24T04:20:30.153Z,15.55
2023-05-24T04:23:01.358Z,17.75
2023-05-24T04:25:32.525Z,16.20
2023-05-24T04:28:07.558Z,15.98
2023-05-24T04:30:39.209Z,17.27
2023-05-24T04:33:10.709Z,16.80
2023-05-24T04:35:43.151Z,15.48
2023-05-24T04:38:16.187Z,16.58
2023-05-24T04:40:46.524Z,16.83
2023-05-24T04:43:17.009Z,15.97
2023-05-24T04:45:47.229Z,15.40
2023-05-24T04:48:17.745Z,14.87
2023-05-24T04:50:48.056Z,15.17
2023-05-24T04:53:18.538Z,16.03
2023-05-24T04:55:49.270Z,16.80
2023-05-24T04:58:20.227Z,14.75
2023-05-24T05:00:50.784Z,15.98
2023-05-24T05:03:21.343Z,15.43
2023-05-24T05:05:52.270Z,15.52
2023-05-24T05:08:23.144Z,14.93
2023-05-24T05:10:53.437Z,15.67
2023-05-24T05:13:23.908Z,15.80
2023-05-24T05:15:54.204Z,14.93
2023-05-24T05:18:24.663Z,16.10
2023-05-24T05:20:54.845Z,17.23
2023-05-24T05:23:25.181Z,15.38
2023-05-24T05:25:55.500Z,16.60
2023-05-24T05:28:25.856Z,16.25
2023-05-24T05:30:59.272Z,16.17
2023-05-24T05:33:29.617Z,16.15
2023-05-24T05:35:59.974Z,15.33
2023-05-24T05:38:30.257Z,15.30
2023-05-24T05:41:00.522Z,15.80
2023-05-24T05:43:31.516Z,16.15
2023-05-24T05:46:03.406Z,15.48
2023-05-24T05:48:33.768Z,15.82
2023-05-24T05:51:04.206Z,16.03
2023-05-24T05:53:37.066Z,15.67
2023-05-24T05:56:07.591Z,16.70
2023-05-24T05:58:37.877Z,15.73
2023-05-24T06:01:08.256Z,15.03
2023-05-24T06:03:38.915Z,16.30
2023-05-24T06:06:11.288Z,16.60
2023-05-24T06:08:43.205Z,16.75
2023-05-24T06:11:13.541Z,17.60
2023-05-24T06:13:43.937Z,16.60
2023-05-24T06:16:14.240Z,16.45
2023-05-24T06:18:57.172Z,15.63
2023-05-24T06:21:32.586Z,16.77
2023-05-24T06:24:04.856Z,17.85
2023-05-24T06:26:35.262Z,16.33
2023-05-24T06:29:05.560Z,16.17
2023-05-24T06:31:35.884Z,16.40
2023-05-24T06:34:06.392Z,15.13
2023-05-24T06:36:38.282Z,17.20
2023-05-24T06:39:08.615Z,16.70
2023-05-24T06:41:39.786Z,17.23
2023-05-24T06:44:10.071Z,15.85
2023-05-24T06:46:40.381Z,16.95
2023-05-24T06:49:11.007Z,16.70
2023-05-24T06:51:41.382Z,16.27
2023-05-24T06:54:13.021Z,16.77
2023-05-24T06:56:43.319Z,17.02
2023-05-24T06:59:13.678Z,17.38
2023-05-24T07:01:45.341Z,15.20
2023-05-24T07:04:16.030Z,16.00
2023-05-24T07:06:46.301Z,15.95
2023-05-24T07:09:16.787Z,15.85
2023-05-24T07:11:47.237Z,16.23
2023-05-24T07:14:17.870Z,17.27
2023-05-24T07:16:49.155Z,16.30
2023-05-24T07:19:19.679Z,17.58
2023-05-24T07:21:49.867Z,15.80
2023-05-24T07:24:20.360Z,16.93
2023-05-24T07:26:50.674Z,16.60
2023-05-24T07:29:21.113Z,16.08
2023-05-24T07:31:51.337Z,16.93
2023-05-24T07:34:24.064Z,16.40
2023-05-24T07:36:54.343Z,16.40
2023-05-24T07:39:25.729Z,16.43
2023-05-24T07:41:57.006Z,15.52
2023-05-24T07:44:27.439Z,15.88
2023-05-24T07:46:58.192Z,15.67
2023-05-24T07:49:28.693Z,17.27
2023-05-24T07:52:01.977Z,14.03
2023-05-24T07:54:32.307Z,16.23
2023-05-24T07:57:02.702Z,15.80
2023-05-24T07:59:33.098Z,15.30
2023-05-24T08:02:07.836Z,15.80
2023-05-24T08:04:38.297Z,15.98
2023-05-24T08:07:10.877Z,16.97
2023-05-24T08:09:41.427Z,16.73
2023-05-24T08:12:11.765Z,17.08
2023-05-24T08:14:42.052Z,15.93
2023-05-24T08:17:12.397Z,18.83
2023-05-24T08:19:42.701Z,16.33
2023-05-24T08:22:12.802Z,17.25
2023-05-24T08:24:43.228Z,17.65
2023-05-24T08:27:14.283Z,16.55
2023-05-24T08:29:44.559Z,16.52
2023-05-24T08:32:14.888Z,16.88
2023-05-24T08:34:45.116Z,17.25
2023-05-24T08:37:17.754Z,16.43
2023-05-24T08:39:48.277Z,17.50
2023-05-24T08:42:19.738Z,16.58
2023-05-24T08:45:07.444Z,17.23
2023-05-24T08:47:39.750Z,16.20
2023-05-24T08:50:11.124Z,15.85
2023-05-24T08:52:43.197Z,15.60
2023-05-24T08:55:14.023Z,15.63
2023-05-24T08:57:45.044Z,16.85
2023-05-24T09:00:16.317Z,15.70
2023-05-24T09:02:48.813Z,15.80
2023-05-24T09:05:19.784Z,15.50
2023-05-24T09:10:26.903Z,16.20
2023-05-24T09:13:00.905Z,15.75
2023-05-24T09:15:31.794Z,16.35
2023-05-24T09:18:02.098Z,16.35
2023-05-24T09:20:33.502Z,15.20
2023-05-24T09:23:07.300Z,16.08
2023-05-24T09:25:37.802Z,16.67
2023-05-24T09:28:11.603Z,16.57
2023-05-24T09:30:42.198Z,17.05
2023-05-24T09:33:13.912Z,17.25
2023-05-24T09:35:48.864Z,16.23
2023-05-24T09:38:22.415Z,18.15
2023-05-24T09:41:10.690Z,15.90
2023-05-24T09:43:52.159Z,16.42
2023-05-24T09:46:22.774Z,17.35
2023-05-24T09:49:05.905Z,17.63
2023-05-24T09:51:41.673Z,17.02
2023-05-24T09:54:12.268Z,19.42
2023-05-24T09:56:43.078Z,18.95
2023-05-24T09:59:13.575Z,19.40
2023-05-24T10:01:44.081Z,18.03
2023-05-24T10:04:15.085Z,19.10
2023-05-24T10:06:46.388Z,21.17
2023-05-24T10:11:48.333Z,20.13
2023-05-24T10:14:20.597Z,20.08
2023-05-24T10:16:50.929Z,20.98
2023-05-24T10:19:21.137Z,20.75
2023-05-24T10:21:52.583Z,19.97
2023-05-24T10:24:28.801Z,20.40
2023-05-24T10:27:01.235Z,21.00
2023-05-24T10:29:53.814Z,20.17
2023-05-24T10:32:27.012Z,20.08
2023-05-24T10:34:58.022Z,20.52
2023-05-24T10:37:32.613Z,19.58
2023-05-24T10:40:03.634Z,20.02
2023-05-24T10:42:35.661Z,18.48
2023-05-24T10:45:24.316Z,18.15
2023-05-24T10:47:55.820Z,18.85
2023-05-24T10:50:26.410Z,19.83
2023-05-24T10:53:15.539Z,18.55
2023-05-24T10:55:57.683Z,20.15
2023-05-24T10:58:48.644Z,19.02
2023-05-24T11:01:34.378Z,18.45
2023-05-24T11:04:21.699Z,18.67
2023-05-24T11:07:06.359Z,17.90
2023-05-24T11:09:37.329Z,17.40
2023-05-24T11:12:11.799Z,17.35
2023-05-24T11:14:42.861Z,18.20
2023-05-24T11:17:13.202Z,17.05
2023-05-24T11:19:55.230Z,18.07
2023-05-24T11:22:27.881Z,17.52
2023-05-24T11:25:00.293Z,17.67
2023-05-24T11:27:31.338Z,16.35
2023-05-24T11:30:02.158Z,17.70
2023-05-24T11:32:32.475Z,17.70
2023-05-24T11:35:03.250Z,17.50
2023-05-24T11:37:45.554Z,17.03
2023-05-24T11:40:18.654Z,17.52
2023-05-24T11:42:53.139Z,15.98
2023-05-24T11:45:24.418Z,15.90
2023-05-24T11:50:28.815Z,16.92
2023-05-24T11:53:06.041Z,15.55
2023-05-24T11:55:37.455Z,17.38
2023-05-24T11:58:14.202Z,16.55
2023-05-24T12:00:45.864Z,14.00
2023-05-24T12:03:16.347Z,12.57
2023-05-24T12:05:47.584Z,9.55
2023-05-24T12:08:18.261Z,9.15
2023-05-24T12:10:51.163Z,8.25
2023-05-24T12:13:26.497Z,6.63
2023-05-24T12:15:58.386Z,7.68
2023-05-24T12:18:29.920Z,6.75
2023-05-24T12:21:00.503Z,6.68
2023-05-24T12:23:32.036Z,6.67
2023-05-24T12:26:02.946Z,6.68
2023-05-24T12:28:41.663Z,6.20
2023-05-24T12:31:12.422Z,5.53
2023-05-24T12:33:42.780Z,5.72
2023-05-24T12:36:13.989Z,5.93
2023-05-24T12:38:44.299Z,6.20
2023-05-24T13:04:48.953Z,5.55
2023-05-24T13:07:19.543Z,5.03
2023-05-24T13:09:49.956Z,5.30
2023-05-24T13:12:20.361Z,6.60
2023-05-24T13:14:52.865Z,5.73
2023-05-24T13:17:23.635Z,5.95
2023-05-24T13:19:54.376Z,5.60
2023-05-24T13:22:24.773Z,5.70
2023-05-24T13:24:55.699Z,4.73
2023-05-24T13:27:26.631Z,4.47
2023-05-24T13:30:00.928Z,4.38
2023-05-24T13:32:32.136Z,5.15
2023-05-24T13:35:03.239Z,4.80
2023-05-24T13:37:35.417Z,5.10
2023-05-24T13:40:06.772Z,4.22
2023-05-24T13:42:37.597Z,5.00
2023-05-24T13:45:08.891Z,5.25
2023-05-24T13:47:41.226Z,4.97
2023-05-24T13:50:12.593Z,5.82
2023-05-24T13:52:42.999Z,6.30
2023-05-24T13:55:13.497Z,6.18
2023-05-24T13:57:51.676Z,5.88
2023-05-24T14:00:23.067Z,5.55
2023-05-24T14:02:54.218Z,6.10
2023-05-24T14:05:27.786Z,6.85
2023-05-24T14:08:00.526Z,6.55
2023-05-24T14:10:31.062Z,6.90
2023-05-24T14:13:20.587Z,6.40
2023-05-24T14:15:52.162Z,6.47
2023-05-24T14:18:22.873Z,6.57
2023-05-24T14:20:53.537Z,7.30
2023-05-24T14:23:24.107Z,7.60
2023-05-24T14:25:54.677Z,7.63
2023-05-24T14:28:25.177Z,8.02
2023-05-24T14:30:55.523Z,7.80
2023-05-24T14:33:27.212Z,8.00
2023-05-24T14:35:57.712Z,7.53
2023-05-24T14:38:28.327Z,7.90
2023-05-24T14:41:00.567Z,7.17
2023-05-24T14:43:31.111Z,7.30
2023-05-24T14:46:01.635Z,7.30
2023-05-24T14:48:32.143Z,6.40
2023-05-24T14:51:02.405Z,7.33
2023-05-24T14:53:32.788Z,7.45
2023-05-24T14:56:03.622Z,7.03
2023-05-24T14:58:33.958Z,7.07
2023-05-24T15:01:05.525Z,7.28
2023-05-24T15:03:36.032Z,7.22
2023-05-24T15:06:08.004Z,7.68
2023-05-24T15:08:38.395Z,7.40
2023-05-24T15:11:09.051Z,7.97
2023-05-24T15:13:40.862Z,7.90
2023-05-24T15:16:11.664Z,8.10
2023-05-24T15:18:42.068Z,9.00
2023-05-24T15:21:12.560Z,8.13
2023-05-24T15:23:42.823Z,8.30
2023-05-24T15:26:13.588Z,8.68
2023-05-24T15:28:43.841Z,8.43
2023-05-24T15:31:14.206Z,9.00
2023-05-24T15:33:44.633Z,9.80
2023-05-24T15:36:16.793Z,9.67
2023-05-24T15:38:47.349Z,9.25
2023-05-24T15:41:17.880Z,9.57
2023-05-24T15:43:48.398Z,10.00
2023-05-24T15:46:19.031Z,9.40
2023-05-24T15:48:49.678Z,9.68
2023-05-24T15:51:53.600Z,10.63
2023-05-24T15:54:10.312Z,11.05
2023-05-24T15:56:40.617Z,10.50
2023-05-24T15:59:10.921Z,10.80
2023-05-24T16:01:41.344Z,10.80
2023-05-24T16:04:11.831Z,10.37
2023-05-24T16:06:42.232Z,10.63
2023-05-24T16:09:12.540Z,10.43
2023-05-24T16:11:43.277Z,12.35
2023-05-24T16:14:13.884Z,11.00
2023-05-24T16:16:45.096Z,12.13
2023-05-24T16:19:15.667Z,12.40
2023-05-24T16:21:45.969Z,13.37
2023-05-24T16:24:16.321Z,12.10
2023-05-24T16:26:46.688Z,14.13
2023-05-24T16:29:19.150Z,14.17
2023-05-24T16:31:49.645Z,14.07
2023-05-24T16:34:19.890Z,15.70
2023-05-24T16:36:50.321Z,15.68
2023-05-24T16:39:20.762Z,14.40
2023-05-24T16:41:50.994Z,15.73
2023-05-24T16:44:21.412Z,15.93
2023-05-24T16:46:51.705Z,16.17
2023-05-24T16:49:22.074Z,15.10
2023-05-24T16:51:52.250Z,16.42
2023-05-24T16:54:22.637Z,15.77
2023-05-24T16:56:56.176Z,17.03
2023-05-24T16:59:26.434Z,16.10
2023-05-24T17:01:56.857Z,16.75
2023-05-24T17:04:27.424Z,16.50
2023-05-24T17:06:57.766Z,16.53
2023-05-24T17:09:28.184Z,16.67
2023-05-24T17:11:59.619Z,16.27
2023-05-24T17:14:30.545Z,17.05
2023-05-24T17:17:01.071Z,15.80
2023-05-24T17:19:32.395Z,18.83
2023-05-24T17:22:02.859Z,17.60
2023-05-24T17:24:33.276Z,17.93
2023-05-24T17:27:04.418Z,18.27
2023-05-24T17:29:38.557Z,18.58
2023-05-24T17:32:09.103Z,19.10
2023-05-24T17:34:39.644Z,19.35
2023-05-24T17:37:10.047Z,19.10
2023-05-24T17:39:41.233Z,20.47
2023-05-24T17:44:43.992Z,22.77
2023-05-24T17:47:14.344Z,24.83
2023-05-24T17:49:44.486Z,25.60
2023-05-24T17:52:16.981Z,29.92
2023-05-24T17:54:47.343Z,32.03
2023-05-24T17:57:17.496Z,32.38
2023-05-24T17:59:48.377Z,36.00
2023-05-24T18:02:18.642Z,33.83
2023-05-24T18:04:48.974Z,33.75
2023-05-24T18:07:20.847Z,34.40
2023-05-24T18:09:51.502Z,33.75
2023-05-24T18:12:22.035Z,32.05
2023-05-24T18:14:52.776Z,31.60
2023-05-24T18:17:23.486Z,32.78
2023-05-24T18:19:54.018Z,31.65
2023-05-24T18:22:24.382Z,32.23
2023-05-24T18:24:54.683Z,32.03
2023-05-24T18:27:25.052Z,31.23
2023-05-24T18:29:55.497Z,30.30
2023-05-24T18:32:25.972Z,29.27
2023-05-24T18:34:57.415Z,28.63
2023-05-24T18:39:57.527Z,28.25
2023-05-24T18:42:28.104Z,27.95
2023-05-24T18:44:58.844Z,27.55
2023-05-24T18:47:30.145Z,27.87
2023-05-24T18:50:01.988Z,28.45
2023-05-24T18:52:32.333Z,29.35
2023-05-24T18:55:02.797Z,29.70
2023-05-24T18:57:33.780Z,31.00
2023-05-24T19:00:04.085Z,31.42
2023-05-24T19:02:34.534Z,33.05
2023-05-24T19:05:05.459Z,32.07
2023-05-24T19:07:36.998Z,32.85
2023-05-24T19:10:07.843Z,32.78
2023-05-24T19:12:38.097Z,32.25
2023-05-24T19:15:09.626Z,32.13
2023-05-24T19:17:39.833Z,33.08
2023-05-24T19:20:10.575Z,32.50
2023-05-24T19:22:40.949Z,33.03
2023-05-24T19:25:11.553Z,35.37
2023-05-24T19:27:57.854Z,36.55
2023-05-24T19:30:29.582Z,38.83
2023-05-24T19:33:00.069Z,40.88
2023-05-24T19:35:30.536Z,39.33
2023-05-24T19:38:00.877Z,41.22
2023-05-24T19:40:31.242Z,39.77
2023-05-24T19:43:01.717Z,40.00
2023-05-24T19:45:31.947Z,37.63
2023-05-24T19:48:02.653Z,35.73
2023-05-24T19:50:33.475Z,36.75
2023-05-24T19:53:03.991Z,35.80
2023-05-24T19:55:34.928Z,37.07
2023-05-24T20:00:35.470Z,36.20
2023-05-24T20:03:06.427Z,34.95
2023-05-24T20:05:36.745Z,34.63
2023-05-24T20:08:09.091Z,32.10
2023-05-24T20:10:41.345Z,28.33
2023-05-24T20:13:12.872Z,26.05
2023-05-24T20:15:43.521Z,27.20
2023-05-24T20:18:13.996Z,24.83
2023-05-24T20:20:44.432Z,22.53
2023-05-24T20:23:14.618Z,23.95
2023-05-24T20:25:46.521Z,21.55
2023-05-24T20:28:29.604Z,21.10
2023-05-24T20:31:01.366Z,19.75
2023-05-24T20:33:31.753Z,20.25
2023-05-24T20:36:02.142Z,18.63
2023-05-24T20:38:32.699Z,19.47
2023-05-24T20:41:02.881Z,18.23
2023-05-24T20:43:33.051Z,17.50
2023-05-24T20:46:05.604Z,18.77
2023-05-24T20:48:36.046Z,18.17
2023-05-24T20:51:06.466Z,18.53
2023-05-24T20:53:36.998Z,16.37
2023-05-24T20:56:07.450Z,17.80
2023-05-24T20:58:37.868Z,18.10
2023-05-24T21:01:08.642Z,17.17
2023-05-24T21:03:39.230Z,17.30
2023-05-24T21:06:09.791Z,17.10
2023-05-24T21:08:40.940Z,17.50
2023-05-24T21:13:41.191Z,17.58
2023-05-24T21:16:11.644Z,18.27
2023-05-24T21:18:42.032Z,16.83
2023-05-24T21:21:13.399Z,16.63
2023-05-24T21:23:44.111Z,16.70
2023-05-24T21:26:14.272Z,17.07
2023-05-24T21:28:44.371Z,17.52
2023-05-24T21:31:15.121Z,17.70
2023-05-24T21:33:48.187Z,16.33
2023-05-24T21:36:18.534Z,17.00
2023-05-24T21:38:49.475Z,17.23
2023-05-24T21:41:19.772Z,16.67
2023-05-24T21:43:49.927Z,16.58
2023-05-24T21:46:20.301Z,16.50
2023-05-24T21:48:51.145Z,16.43
2023-05-24T21:51:21.479Z,17.90
2023-05-24T21:53:51.904Z,17.42
2023-05-24T21:56:22.291Z,15.77
2023-05-24T21:58:52.793Z,16.97
2023-05-24T22:01:23.480Z,16.67
2023-05-24T22:03:55.138Z,16.98
2023-05-24T22:06:26.365Z,16.98
2023-05-24T22:08:57.990Z,16.60
2023-05-24T22:11:29.050Z,16.73
2023-05-24T22:13:59.261Z,16.33
2023-05-24T22:16:29.727Z,17.47
2023-05-24T22:19:00.276Z,16.93
2023-05-24T22:21:30.645Z,17.07
2023-05-24T22:24:00.725Z,17.57
2023-05-24T22:26:30.921Z,16.88
2023-05-24T22:29:06.730Z,17.00
2023-05-24T22:31:37.291Z,16.45
2023-05-24T22:34:08.542Z,16.67
2023-05-24T22:41:42.383Z,17.63
2023-05-24T22:44:13.614Z,18.13
2023-05-24T22:47:38.687Z,16.85
2023-05-24T22:50:10.327Z,17.63
2023-05-24T22:52:44.793Z,18.83
2023-05-24T22:55:15.399Z,19.05
2023-05-24T22:57:45.614Z,18.10
2023-05-24T23:00:17.538Z,18.40
2023-05-24T23:02:49.296Z,18.95
2023-05-24T23:05:19.874Z,18.50
2023-05-24T23:07:51.755Z,19.00
2023-05-24T23:10:22.173Z,19.00
2023-05-24T23:12:52.891Z,18.97
2023-05-24T23:15:23.299Z,17.57
2023-05-24T23:17:55.200Z,18.10
2023-05-24T23:20:25.954Z,18.20
2023-05-24T23:22:56.471Z,17.23
2023-05-24T23:25:26.717Z,18.50
2023-05-24T23:27:57.298Z,18.35
2023-05-24T23:30:27.930Z,18.17
2023-05-24T23:33:00.192Z,17.17
2023-05-24T23:35:30.688Z,18.02
2023-05-24T23:38:01.216Z,18.40
2023-05-24T23:40:32.490Z,18.38
2023-05-24T23:45:33.075Z,18.13
2023-05-24T23:48:03.819Z,18.38
2023-05-24T23:50:42.864Z,16.80
2023-05-24T23:53:20.784Z,16.55
2023-05-24T23:55:51.140Z,17.93
2023-05-24T23:58:21.671Z,17.00
